Historyczne dane pomiarowe

Dodano dane terminowe – wersja testowa.

Dane z okresu 1951-2019

Wersja bazy: 1.34 [2019-03-16, lista zmian], aktualizacja planowana na 2019-04-15

Dane meteo z obszaru Polski uzyskane na podstawie danych udostępnionych przez Instytut Meteorologii i Gospodarki Wodnej – Państwowy Instytut Badawczy.

 

Wybierz Datę:    

       

TemperaturaWilgotnośćWiatrCiśnienieOpadyŚniegCzas trwania zjawisk
 Stacja t tx tn tng RH VA  wxwx mslp ppp RRR   cm mm wxwxwxwxwxwxwx
1999-08-14 13.6 19.5 8.5- 76.0- 3.3 2.3---- 0.0------------
1999-08-13 14.8 19.6 11.0- 84.8- 4.7 2.0---- 0.0------------
1999-08-12 16.2 19.3 14.5- 84.5- 4.3 2.3---- 0.0------------
1999-08-11 19.3 23.5 15.8- 84.3- 6.3 2.0---- 1.3------------
1999-08-10 21.0 29.4 16.3- 90.3- 7.0 1.7---- 20.5------------
1999-08-09 21.4 30.3 14.0- 80.8- 3.0 0.0---- 27.6------------
1999-08-08 21.6 26.6 17.1- 80.3- 4.0 2.3---- 0.0------------
1999-08-07 20.1 27.9 12.4- 80.0- 2.0 1.0---- 0.0------------
1999-08-06 19.2 25.5 14.3- 85.3- 4.7 1.0---- 1.1------------
1999-08-05 16.4 25.5 8.8- 83.8- 3.0 0.0---- 1.5------------
1999-08-04 16.6 23.4 10.8- 84.5- 3.7 0.0---- 0.0------------
1999-08-03 15.5 19.7 12.1- 90.3- 7.7 1.7---- 0.0------------
1999-08-02 14.8 18.9 11.3- 91.3- 8.0 0.0---- 0.2------------
1999-08-01 17.1 23.0 13.1- 85.5- 6.3 0.7---- 1.2------------
1999-07-31 16.9 23.7 11.1- 73.8- 5.0 2.0---- 0.7------------
1999-07-30 16.8 23.4 9.6- 71.5- 6.7 2.3---- 0.0------------
1999-07-29 16.5 23.1 10.5- 79.0- 6.0 2.7---- 0.0------------
1999-07-28 17.1 21.7 14.1- 89.8- 6.7 2.0---- 0.0------------
1999-07-27 19.4 24.4 15.2- 88.5- 7.3 2.7---- 3.4------------
1999-07-26 21.0 27.6 13.8- 82.8- 5.7 1.0---- 0.5------------
1999-07-25 18.0 23.9 12.3- 86.3- 4.3 1.0---- 0.0------------
1999-07-24 16.8 21.8 12.5- 83.3- 7.3 1.7---- 0.0------------
1999-07-23 15.2 19.2 13.1- 95.3- 7.7 2.0---- 32.0------------
1999-07-22 20.1 25.3 15.8- 77.5- 5.3 2.0---- 10.0------------
1999-07-21 21.5 29.5 13.9- 77.8- 4.3 2.7---- 0.0------------
1999-07-20 20.7 28.5 12.5- 71.3- 0.0 1.0---- 0.0------------
1999-07-19 17.9 26.2 9.8- 78.5- 1.3 0.3---- 0.0------------
1999-07-18 17.1 24.6 9.1- 78.0- 1.0 0.0---- 0.0------------
1999-07-17 15.7 22.8 9.4- 80.0- 3.7 0.7---- 0.0------------
1999-07-16 16.1 21.6 9.7- 78.8- 3.7 1.3---- 0.0------------
1999-07-15 17.7 22.1 15.3- 80.5- 7.3 4.0---- 0.0------------
1999-07-14 21.0 24.6 17.4- 81.0- 4.3 0.7---- 9.0------------
1999-07-13 20.3 24.8 16.2- 84.3- 6.0 2.7---- 1.3------------
1999-07-12 20.3 26.6 14.8- 82.5- 5.7 2.0---- 1.5------------
1999-07-11 20.3 23.3 17.8- 75.0- 7.0 2.7---- 8.5------------
1999-07-10 19.7 23.2 17.6- 83.0- 8.0 2.7---- 0.0------------
1999-07-09 20.9 25.5 17.1- 87.5- 7.0 1.3---- 0.0------------
1999-07-08 21.3 25.8 18.4- 87.5- 6.3 1.3---- 39.0------------
1999-07-07 22.0 27.0 17.5- 88.0- 7.0 1.3---- 5.5------------
1999-07-06 24.4 30.4 16.0- 66.0- 0.7 3.3---- 0.0------------
1999-07-05 21.9 29.6 12.7- 71.8- 0.3 2.3---- 0.0------------
1999-07-04 20.6 29.2 11.3- 76.5- 0.0 0.3---- 0.0------------
1999-07-03 19.7 25.4 14.5- 82.3- 3.7 0.7---- 0.0------------
1999-07-02 20.1 24.9 15.1- 80.0- 5.0 2.3---- 0.0------------
1999-07-01 18.8 24.8 11.5- 79.3- 3.7 1.0---- 0.0------------
1999-06-30 19.9 24.9 13.1- 75.0- 3.7 1.0---- 0.0------------
1999-06-29 19.1 23.5 13.9- 79.5- 3.7 3.0---- 0.0------------
1999-06-28 18.8 27.0 9.3- 72.5- 2.3 1.0---- 0.0------------
1999-06-27 18.2 25.6 9.1- 70.3- 0.0 2.0---- 0.0------------
1999-06-26 14.4 23.0 5.2- 79.5- 0.3 1.3---- 0.0------------
1999-06-25 14.1 19.0 9.7- 79.0- 3.3 2.0---- 0.0------------
1999-06-24 10.5 11.3 9.8- 96.5- 8.0 2.0---- 15.8------------
1999-06-23 9.4 11.2 8.0- 96.3- 8.0 4.7---- 16.9------------
1999-06-22 11.6 15.4 8.9- 95.5- 8.0 7.3---- 23.3------------
1999-06-21 17.3 23.4 13.8- 88.8- 6.3 1.0---- 21.0------------
1999-06-20 18.3 22.7 14.7- 84.5- 7.0 0.0---- 1.4------------
1999-06-19 17.1 22.0 13.8- 86.8- 6.3 2.3---- 0.1------------
1999-06-18 18.1 22.4 15.2- 89.8- 7.3 1.3---- 9.0------------
1999-06-17 19.5 23.2 16.5- 86.5- 7.7 2.3---- 24.5------------
1999-06-16 18.5 20.5 16.2- 91.0- 7.3 1.3---- 0.1------------
260.4 ms

 

Źródłem pochodzenia danych jest Instytut Meteorologii i Gospodarki Wodnej – Państwowy Instytut Badawczy. Dane Instytutu Meteorologii i Gospodarki Wodnej – Państwowego Instytutu Badawczego zostały przetworzone.

Dane źródłowe można odnaleźć na stronie https://dane.imgw.pl